Terminal Aerodrome Forecast
Issued by NWS El Paso, TX

Home | Current Version | Previous Version | Text Only | Print | Product List | Glossary On
Versions: 1 2 3 4 5 6 7 8 9 10 11 12 13 14 15 16 17
000
FTUS44 KEPZ 221700 CCA
TAFELP
TAF COR
KELP 221749Z 2218/2318 08008KT P6SM VCTS FEW015 BKN025CB OVC060
      TEMPO 2218/2222 VRB15G30KT 2SM TSRA SCT010 OVC020CB
     FM222200 12010KT P6SM VCTS FEW020 BKN030CB BKN080
      TEMPO 2300/2304 VRB15G25KT 3SM TSRA BKN020CB=

USA.gov is the U.S. government's official web portal to all federal, state and local government web resources and services.